Terminal Aerodrome Forecast
Issued by NWS

Home | Current Version | Previous Version | Graphics & Text | Print | Product List | Glossary On
Versions: 1 2 3 4 5 6 7 8 9 10 11 12 13 14 15 16 17 18 19 20 21 22 23 24 25 26 27
000
FTUS43 KGRB 040000 AAA
TAFRHI
TAF AMD
KRHI 040019Z 0400/0424 23011G17KT P6SM -SHRA SCT060 OVC090
      TEMPO 0400/0401 33025G35KT 2SM TSRA OVC060CB
     FM040400 32004KT P6SM SCT060 BKN100
     FM041000 33005KT P6SM SCT250
     FM041500 35009KT P6SM SCT250=

USA.gov is the U.S. government's official web portal to all federal, state and local government web resources and services.